Terminal Aerodrome Forecast
Issued by NWS Cleveland, OH

Home | Current Version | Previous Version | Graphics & Text | Print | Product List | Glossary On
Versions: 1 2 3 4 5 6 7 8 9 10 11 12 13 14 15 16 17 18 19 20 21 22 23 24
914
FTUS41 KCLE 231000 AAA
TAFTOL
TAF AMD
KTOL 231000Z 2310/2406 22014KT P6SM SCT020
      TEMPO 2310/2314 5SM BR BKN020
     FM231400 24011KT P6SM BKN025
     FM231800 28008KT P6SM BKN045
     FM232100 35006KT P6SM BKN045
     FM240000 05006KT 6SM BR OVC025
     FM240400 08006KT 3SM -RA BR OVC012=

USA.gov is the U.S. government's official web portal to all federal, state and local government web resources and services.